sensor_id;sensor_type;location;lat;lon;timestamp;pressure;altitude;pressure_sealevel;temperature;humidity
81387;BME280;70842;50.744;7.114;2023-09-18T00:00:23;100176.88;;;24.16;62.36
81387;BME280;70842;50.744;7.114;2023-09-18T00:02:50;100168.63;;;24.11;62.60
81387;BME280;70842;50.744;7.114;2023-09-18T00:05:16;100152.53;;;24.16;62.38
81387;BME280;70842;50.744;7.114;2023-09-18T00:07:43;100157.25;;;24.20;62.32
81387;BME280;70842;50.744;7.114;2023-09-18T00:10:12;100146.50;;;24.14;62.73
81387;BME280;70842;50.744;7.114;2023-09-18T00:12:39;100147.34;;;24.14;62.41
81387;BME280;70842;50.744;7.114;2023-09-18T00:15:07;100128.16;;;23.73;63.93
81387;BME280;70842;50.744;7.114;2023-09-18T00:17:36;100127.47;;;24.02;63.10
81387;BME280;70842;50.744;7.114;2023-09-18T00:20:03;100124.88;;;23.89;63.14
81387;BME280;70842;50.744;7.114;2023-09-18T00:22:33;100119.22;;;23.90;63.03
81387;BME280;70842;50.744;7.114;2023-09-18T00:25:00;100113.44;;;23.87;63.13
81387;BME280;70842;50.744;7.114;2023-09-18T00:27:29;100116.00;;;24.07;62.47
81387;BME280;70842;50.744;7.114;2023-09-18T00:29:55;100116.78;;;24.07;62.33
81387;BME280;70842;50.744;7.114;2023-09-18T00:32:21;100107.56;;;23.72;63.36
81387;BME280;70842;50.744;7.114;2023-09-18T00:34:48;100109.31;;;23.84;62.82
81387;BME280;70842;50.744;7.114;2023-09-18T00:37:14;100106.63;;;24.02;62.32
81387;BME280;70842;50.744;7.114;2023-09-18T00:39:42;100108.00;;;24.12;61.86
81387;BME280;70842;50.744;7.114;2023-09-18T00:42:10;100099.19;;;23.98;62.77
81387;BME280;70842;50.744;7.114;2023-09-18T00:44:40;100095.22;;;23.58;63.82
81387;BME280;70842;50.744;7.114;2023-09-18T00:47:08;100107.81;;;23.88;62.77
81387;BME280;70842;50.744;7.114;2023-09-18T00:49:37;100100.03;;;23.98;62.70
81387;BME280;70842;50.744;7.114;2023-09-18T00:52:05;100098.94;;;23.81;63.06
81387;BME280;70842;50.744;7.114;2023-09-18T00:54:33;100094.34;;;23.82;63.06
81387;BME280;70842;50.744;7.114;2023-09-18T00:57:02;100086.75;;;23.90;62.81
81387;BME280;70842;50.744;7.114;2023-09-18T00:59:29;100089.59;;;23.77;63.28
81387;BME280;70842;50.744;7.114;2023-09-18T01:01:59;100082.59;;;23.70;63.71
81387;BME280;70842;50.744;7.114;2023-09-18T01:04:26;100086.09;;;23.52;64.13
81387;BME280;70842;50.744;7.114;2023-09-18T01:06:55;100083.91;;;23.85;63.11
81387;BME280;70842;50.744;7.114;2023-09-18T01:09:23;100078.94;;;23.82;63.13
81387;BME280;70842;50.744;7.114;2023-09-18T01:12:28;100076.59;;;23.86;63.03
81387;BME280;70842;50.744;7.114;2023-09-18T01:15:02;100082.84;;;23.86;63.02
81387;BME280;70842;50.744;7.114;2023-09-18T01:17:35;100079.66;;;23.53;64.03
81387;BME280;70842;50.744;7.114;2023-09-18T01:20:11;100072.97;;;23.56;64.24
81387;BME280;70842;50.744;7.114;2023-09-18T01:22:38;100082.25;;;23.66;63.47
81387;BME280;70842;50.744;7.114;2023-09-18T01:25:05;100081.88;;;23.81;63.01
81387;BME280;70842;50.744;7.114;2023-09-18T01:27:32;100068.94;;;23.83;63.05
81387;BME280;70842;50.744;7.114;2023-09-18T01:29:59;100070.22;;;23.80;63.16
81387;BME280;70842;50.744;7.114;2023-09-18T01:32:27;100067.75;;;23.79;62.98
81387;BME280;70842;50.744;7.114;2023-09-18T01:34:57;100063.75;;;23.99;62.14
81387;BME280;70842;50.744;7.114;2023-09-18T01:37:27;100062.56;;;23.95;62.72
81387;BME280;70842;50.744;7.114;2023-09-18T01:39:55;100053.53;;;24.01;62.23
81387;BME280;70842;50.744;7.114;2023-09-18T01:42:26;100048.72;;;24.03;62.25
81387;BME280;70842;50.744;7.114;2023-09-18T01:44:54;100059.63;;;23.97;62.54
81387;BME280;70842;50.744;7.114;2023-09-18T01:47:21;100050.38;;;23.86;62.75
81387;BME280;70842;50.744;7.114;2023-09-18T01:49:53;100051.22;;;24.05;61.97
81387;BME280;70842;50.744;7.114;2023-09-18T01:52:19;100040.81;;;23.84;62.57
81387;BME280;70842;50.744;7.114;2023-09-18T01:54:46;100039.13;;;23.89;62.59
81387;BME280;70842;50.744;7.114;2023-09-18T01:57:12;100052.41;;;23.73;63.38
81387;BME280;70842;50.744;7.114;2023-09-18T01:59:39;100067.94;;;23.77;63.27
81387;BME280;70842;50.744;7.114;2023-09-18T02:02:08;100061.03;;;23.63;63.17
81387;BME280;70842;50.744;7.114;2023-09-18T02:04:37;100057.66;;;23.18;64.12
81387;BME280;70842;50.744;7.114;2023-09-18T02:07:24;100055.09;;;22.99;64.31
81387;BME280;70842;50.744;7.114;2023-09-18T02:09:50;100057.66;;;23.18;63.67
81387;BME280;70842;50.744;7.114;2023-09-18T02:12:17;100062.31;;;23.11;63.31
81387;BME280;70842;50.744;7.114;2023-09-18T02:14:47;100053.88;;;23.26;62.49
81387;BME280;70842;50.744;7.114;2023-09-18T02:17:13;100059.94;;;23.21;62.78
81387;BME280;70842;50.744;7.114;2023-09-18T02:19:40;100044.19;;;23.12;63.39
81387;BME280;70842;50.744;7.114;2023-09-18T02:22:06;100037.28;;;23.47;62.55
81387;BME280;70842;50.744;7.114;2023-09-18T02:24:33;100042.28;;;23.44;63.38
81387;BME280;70842;50.744;7.114;2023-09-18T02:27:00;100034.28;;;22.75;65.97
81387;BME280;70842;50.744;7.114;2023-09-18T02:29:29;100026.19;;;22.75;66.45
81387;BME280;70842;50.744;7.114;2023-09-18T02:31:55;100011.03;;;22.74;66.73
81387;BME280;70842;50.744;7.114;2023-09-18T02:34:22;100002.13;;;22.73;66.83
81387;BME280;70842;50.744;7.114;2023-09-18T02:36:48;99987.22;;;22.58;67.08
81387;BME280;70842;50.744;7.114;2023-09-18T02:39:15;99981.16;;;22.93;66.64
81387;BME280;70842;50.744;7.114;2023-09-18T02:41:41;99963.72;;;23.39;65.33
81387;BME280;70842;50.744;7.114;2023-09-18T02:44:07;99934.03;;;23.07;66.17
81387;BME280;70842;50.744;7.114;2023-09-18T02:46:34;99938.28;;;22.47;68.43
81387;BME280;70842;50.744;7.114;2023-09-18T02:49:00;99934.34;;;22.75;67.33
81387;BME280;70842;50.744;7.114;2023-09-18T02:51:27;99931.47;;;22.38;68.43
81387;BME280;70842;50.744;7.114;2023-09-18T02:53:53;99915.94;;;22.90;67.26
81387;BME280;70842;50.744;7.114;2023-09-18T02:56:19;99910.81;;;22.82;66.86
81387;BME280;70842;50.744;7.114;2023-09-18T02:58:46;99923.03;;;22.60;67.38
81387;BME280;70842;50.744;7.114;2023-09-18T03:01:12;99923.53;;;22.12;69.65
81387;BME280;70842;50.744;7.114;2023-09-18T03:03:39;99923.72;;;22.80;67.30
81387;BME280;70842;50.744;7.114;2023-09-18T03:06:08;99933.34;;;22.38;68.96
81387;BME280;70842;50.744;7.114;2023-09-18T03:08:34;99927.44;;;22.54;68.01
81387;BME280;70842;50.744;7.114;2023-09-18T03:11:01;99929.94;;;22.49;68.05
81387;BME280;70842;50.744;7.114;2023-09-18T03:13:28;99949.50;;;22.13;69.01
81387;BME280;70842;50.744;7.114;2023-09-18T03:15:55;99949.00;;;22.23;69.35
81387;BME280;70842;50.744;7.114;2023-09-18T03:18:23;99944.91;;;22.20;68.71
81387;BME280;70842;50.744;7.114;2023-09-18T03:20:49;99933.75;;;22.41;67.90
81387;BME280;70842;50.744;7.114;2023-09-18T03:23:16;99944.06;;;21.82;70.29
81387;BME280;70842;50.744;7.114;2023-09-18T03:25:42;99968.72;;;21.72;70.90
81387;BME280;70842;50.744;7.114;2023-09-18T03:28:17;99968.34;;;21.69;71.16
81387;BME280;70842;50.744;7.114;2023-09-18T03:30:43;99982.22;;;21.72;70.63
81387;BME280;70842;50.744;7.114;2023-09-18T03:33:09;99985.63;;;22.50;68.42
81387;BME280;70842;50.744;7.114;2023-09-18T03:35:46;99987.06;;;22.15;68.94
81387;BME280;70842;50.744;7.114;2023-09-18T03:38:14;99991.47;;;22.40;67.95
81387;BME280;70842;50.744;7.114;2023-09-18T03:40:40;99982.19;;;22.68;66.58
81387;BME280;70842;50.744;7.114;2023-09-18T03:43:08;99986.81;;;23.10;66.21
81387;BME280;70842;50.744;7.114;2023-09-18T03:45:35;99998.84;;;22.65;67.30
81387;BME280;70842;50.744;7.114;2023-09-18T03:48:01;99996.16;;;22.58;67.69
81387;BME280;70842;50.744;7.114;2023-09-18T03:50:28;99988.25;;;22.57;67.56
81387;BME280;70842;50.744;7.114;2023-09-18T03:52:54;99984.38;;;22.84;66.72
81387;BME280;70842;50.744;7.114;2023-09-18T03:55:21;99983.78;;;22.00;69.44
81387;BME280;70842;50.744;7.114;2023-09-18T03:57:47;99990.56;;;21.58;70.98
81387;BME280;70842;50.744;7.114;2023-09-18T04:00:14;99987.19;;;21.75;70.16
81387;BME280;70842;50.744;7.114;2023-09-18T04:02:42;99982.28;;;21.40;71.54
81387;BME280;70842;50.744;7.114;2023-09-18T04:05:08;99970.47;;;21.41;71.81
81387;BME280;70842;50.744;7.114;2023-09-18T04:07:36;99974.69;;;22.01;69.63
81387;BME280;70842;50.744;7.114;2023-09-18T04:10:02;99960.66;;;21.66;70.75
